sensor_id;sensor_type;location;lat;lon;timestamp;temperature;humidity
66708;DHT22;53622;0.000;0.000;2022-07-06T00:01:51;20.20;68.10
66708;DHT22;53622;0.000;0.000;2022-07-06T00:04:21;20.20;67.60
66708;DHT22;53622;0.000;0.000;2022-07-06T00:06:50;20.10;67.50
66708;DHT22;53622;0.000;0.000;2022-07-06T00:09:20;20.10;67.00
66708;DHT22;53622;0.000;0.000;2022-07-06T00:11:50;20.10;66.70
66708;DHT22;53622;0.000;0.000;2022-07-06T00:14:19;20.10;67.00
66708;DHT22;53622;0.000;0.000;2022-07-06T00:16:49;20.10;67.30
66708;DHT22;53622;0.000;0.000;2022-07-06T00:19:18;20.10;67.60
66708;DHT22;53622;0.000;0.000;2022-07-06T00:21:47;20.10;67.50
66708;DHT22;53622;0.000;0.000;2022-07-06T00:24:16;20.00;67.60
66708;DHT22;53622;0.000;0.000;2022-07-06T00:26:46;20.00;67.70
66708;DHT22;53622;0.000;0.000;2022-07-06T00:29:17;20.00;67.50
66708;DHT22;53622;0.000;0.000;2022-07-06T00:31:46;20.00;67.30
66708;DHT22;53622;0.000;0.000;2022-07-06T00:34:16;20.10;67.70
66708;DHT22;53622;0.000;0.000;2022-07-06T00:36:45;20.10;68.40
66708;DHT22;53622;0.000;0.000;2022-07-06T00:39:14;20.10;69.00
66708;DHT22;53622;0.000;0.000;2022-07-06T00:41:46;20.00;70.00
66708;DHT22;53622;0.000;0.000;2022-07-06T00:44:17;20.00;70.50
66708;DHT22;53622;0.000;0.000;2022-07-06T00:46:46;19.90;70.30
66708;DHT22;53622;0.000;0.000;2022-07-06T00:49:15;19.90;70.50
66708;DHT22;53622;0.000;0.000;2022-07-06T00:51:59;19.90;70.60
66708;DHT22;53622;0.000;0.000;2022-07-06T00:54:31;19.90;70.50
66708;DHT22;53622;0.000;0.000;2022-07-06T00:57:00;19.80;70.00
66708;DHT22;53622;0.000;0.000;2022-07-06T00:59:31;19.80;70.00
66708;DHT22;53622;0.000;0.000;2022-07-06T01:02:01;19.80;70.30
66708;DHT22;53622;0.000;0.000;2022-07-06T01:04:30;19.80;70.20
66708;DHT22;53622;0.000;0.000;2022-07-06T01:07:01;19.70;69.80
66708;DHT22;53622;0.000;0.000;2022-07-06T01:09:31;19.80;69.50
66708;DHT22;53622;0.000;0.000;2022-07-06T01:12:00;19.80;69.30
66708;DHT22;53622;0.000;0.000;2022-07-06T01:14:32;19.70;68.90
66708;DHT22;53622;0.000;0.000;2022-07-06T01:17:02;19.70;68.70
66708;DHT22;53622;0.000;0.000;2022-07-06T01:19:31;19.70;69.00
66708;DHT22;53622;0.000;0.000;2022-07-06T01:22:03;19.70;69.60
66708;DHT22;53622;0.000;0.000;2022-07-06T01:24:34;19.70;70.10
66708;DHT22;53622;0.000;0.000;2022-07-06T01:27:04;19.70;70.50
66708;DHT22;53622;0.000;0.000;2022-07-06T01:29:34;19.60;70.50
66708;DHT22;53622;0.000;0.000;2022-07-06T01:32:04;19.60;70.60
66708;DHT22;53622;0.000;0.000;2022-07-06T01:34:34;19.60;70.80
66708;DHT22;53622;0.000;0.000;2022-07-06T01:37:05;19.60;70.60
66708;DHT22;53622;0.000;0.000;2022-07-06T01:39:35;19.60;70.30
66708;DHT22;53622;0.000;0.000;2022-07-06T01:42:05;19.50;70.70
66708;DHT22;53622;0.000;0.000;2022-07-06T01:44:34;19.40;71.80
66708;DHT22;53622;0.000;0.000;2022-07-06T01:47:04;19.40;72.90
66708;DHT22;53622;0.000;0.000;2022-07-06T01:49:35;19.40;73.30
66708;DHT22;53622;0.000;0.000;2022-07-06T01:52:06;19.40;73.90
66708;DHT22;53622;0.000;0.000;2022-07-06T01:54:35;19.40;74.20
66708;DHT22;53622;0.000;0.000;2022-07-06T01:57:05;19.40;73.70
66708;DHT22;53622;0.000;0.000;2022-07-06T01:59:34;19.40;72.70
66708;DHT22;53622;0.000;0.000;2022-07-06T02:02:04;19.50;72.00
66708;DHT22;53622;0.000;0.000;2022-07-06T02:04:33;19.50;71.40
66708;DHT22;53622;0.000;0.000;2022-07-06T02:07:04;19.50;70.80
66708;DHT22;53622;0.000;0.000;2022-07-06T02:09:33;19.50;70.30
66708;DHT22;53622;0.000;0.000;2022-07-06T02:12:03;19.50;70.10
66708;DHT22;53622;0.000;0.000;2022-07-06T02:14:33;19.50;69.70
66708;DHT22;53622;0.000;0.000;2022-07-06T02:17:02;19.60;69.40
66708;DHT22;53622;0.000;0.000;2022-07-06T02:19:34;19.50;69.30
66708;DHT22;53622;0.000;0.000;2022-07-06T02:22:05;19.50;69.40
66708;DHT22;53622;0.000;0.000;2022-07-06T02:24:34;19.50;69.80
66708;DHT22;53622;0.000;0.000;2022-07-06T02:27:04;19.40;70.70
66708;DHT22;53622;0.000;0.000;2022-07-06T02:29:34;19.30;71.20
66708;DHT22;53622;0.000;0.000;2022-07-06T02:32:03;19.30;71.00
66708;DHT22;53622;0.000;0.000;2022-07-06T02:34:33;19.30;70.80
66708;DHT22;53622;0.000;0.000;2022-07-06T02:37:03;19.30;70.60
66708;DHT22;53622;0.000;0.000;2022-07-06T02:39:33;19.30;70.20
66708;DHT22;53622;0.000;0.000;2022-07-06T02:42:04;19.30;70.60
66708;DHT22;53622;0.000;0.000;2022-07-06T02:44:34;19.30;70.60
66708;DHT22;53622;0.000;0.000;2022-07-06T02:47:04;19.20;71.30
66708;DHT22;53622;0.000;0.000;2022-07-06T02:49:33;19.20;71.20
66708;DHT22;53622;0.000;0.000;2022-07-06T02:52:03;19.20;70.90
66708;DHT22;53622;0.000;0.000;2022-07-06T02:54:34;19.10;71.00
66708;DHT22;53622;0.000;0.000;2022-07-06T02:57:04;19.10;71.50
66708;DHT22;53622;0.000;0.000;2022-07-06T02:59:33;19.10;71.90
66708;DHT22;53622;0.000;0.000;2022-07-06T03:02:03;19.10;72.00
66708;DHT22;53622;0.000;0.000;2022-07-06T03:04:33;19.00;72.30
66708;DHT22;53622;0.000;0.000;2022-07-06T03:07:03;19.00;72.50
66708;DHT22;53622;0.000;0.000;2022-07-06T03:09:34;19.00;72.80
66708;DHT22;53622;0.000;0.000;2022-07-06T03:12:03;19.00;72.90
66708;DHT22;53622;0.000;0.000;2022-07-06T03:14:34;19.00;72.70
66708;DHT22;53622;0.000;0.000;2022-07-06T03:17:04;19.00;72.90
66708;DHT22;53622;0.000;0.000;2022-07-06T03:19:33;19.00;72.90
66708;DHT22;53622;0.000;0.000;2022-07-06T03:22:03;19.00;72.70
66708;DHT22;53622;0.000;0.000;2022-07-06T03:24:34;19.00;73.10
66708;DHT22;53622;0.000;0.000;2022-07-06T03:27:04;19.00;73.40
66708;DHT22;53622;0.000;0.000;2022-07-06T03:29:33;18.90;73.80
66708;DHT22;53622;0.000;0.000;2022-07-06T03:32:04;18.90;74.00
66708;DHT22;53622;0.000;0.000;2022-07-06T03:34:33;18.80;73.90
66708;DHT22;53622;0.000;0.000;2022-07-06T03:37:03;18.80;74.70
66708;DHT22;53622;0.000;0.000;2022-07-06T03:39:36;18.80;74.20
66708;DHT22;53622;0.000;0.000;2022-07-06T03:42:06;18.70;74.60
66708;DHT22;53622;0.000;0.000;2022-07-06T03:44:36;18.70;74.50
66708;DHT22;53622;0.000;0.000;2022-07-06T03:47:06;18.70;74.40
66708;DHT22;53622;0.000;0.000;2022-07-06T03:49:36;18.70;74.60
66708;DHT22;53622;0.000;0.000;2022-07-06T03:52:07;18.80;75.00
66708;DHT22;53622;0.000;0.000;2022-07-06T03:54:44;18.70;75.30
66708;DHT22;53622;0.000;0.000;2022-07-06T03:57:18;18.70;75.30
66708;DHT22;53622;0.000;0.000;2022-07-06T03:59:49;18.70;75.10
66708;DHT22;53622;0.000;0.000;2022-07-06T04:02:20;18.70;75.00
66708;DHT22;53622;0.000;0.000;2022-07-06T04:04:51;18.70;75.00
66708;DHT22;53622;0.000;0.000;2022-07-06T04:07:21;18.60;75.30
66708;DHT22;53622;0.000;0.000;2022-07-06T04:09:52;18.70;75.40
66708;DHT22;53622;0.000;0.000;2022-07-06T04:12:21;18.70;76.00
66708;DHT22;53622;0.000;0.000;2022-07-06T04:14:56;18.70;76.50
66708;DHT22;53622;0.000;0.000;2022-07-06T04:17:25;18.60;76.90
66708;DHT22;53622;0.000;0.000;2022-07-06T04:20:12;18.60;76.90
66708;DHT22;53622;0.000;0.000;2022-07-06T04:22:41;18.60;76.60
66708;DHT22;53622;0.000;0.000;2022-07-06T04:25:12;18.70;76.10
66708;DHT22;53622;0.000;0.000;2022-07-06T04:27:42;18.70;76.20
66708;DHT22;53622;0.000;0.000;2022-07-06T04:30:11;18.70;76.90
66708;DHT22;53622;0.000;0.000;2022-07-06T04:32:42;18.70;77.10
66708;DHT22;53622;0.000;0.000;2022-07-06T04:35:13;18.70;78.00
66708;DHT22;53622;0.000;0.000;2022-07-06T04:37:45;18.70;78.80
66708;DHT22;53622;0.000;0.000;2022-07-06T04:40:18;18.70;78.50
66708;DHT22;53622;0.000;0.000;2022-07-06T04:42:50;18.70;78.00
66708;DHT22;53622;0.000;0.000;2022-07-06T04:45:20;18.70;77.40
66708;DHT22;53622;0.000;0.000;2022-07-06T04:47:50;18.70;77.20
66708;DHT22;53622;0.000;0.000;2022-07-06T04:50:20;18.70;77.90
66708;DHT22;53622;0.000;0.000;2022-07-06T04:52:51;18.70;78.50
66708;DHT22;53622;0.000;0.000;2022-07-06T04:55:23;18.60;79.00
66708;DHT22;53622;0.000;0.000;2022-07-06T04:57:52;18.60;79.50
66708;DHT22;53622;0.000;0.000;2022-07-06T05:00:23;18.60;80.20
66708;DHT22;53622;0.000;0.000;2022-07-06T05:02:53;18.60;80.40
66708;DHT22;53622;0.000;0.000;2022-07-06T05:05:26;18.60;80.90
66708;DHT22;53622;0.000;0.000;2022-07-06T05:07:55;18.60;81.20
66708;DHT22;53622;0.000;0.000;2022-07-06T05:10:26;18.60;81.60
66708;DHT22;53622;0.000;0.000;2022-07-06T05:12:57;18.60;81.70
66708;DHT22;53622;0.000;0.000;2022-07-06T05:15:28;18.60;81.40
66708;DHT22;53622;0.000;0.000;2022-07-06T05:17:58;18.70;81.70
66708;DHT22;53622;0.000;0.000;2022-07-06T05:20:27;18.70;82.20
66708;DHT22;53622;0.000;0.000;2022-07-06T05:22:57;18.90;81.00
66708;DHT22;53622;0.000;0.000;2022-07-06T05:25:31;19.00;80.60
66708;DHT22;53622;0.000;0.000;2022-07-06T05:28:01;19.20;80.00
66708;DHT22;53622;0.000;0.000;2022-07-06T05:30:31;19.30;80.50
66708;DHT22;53622;0.000;0.000;2022-07-06T05:33:03;19.40;80.10
66708;DHT22;53622;0.000;0.000;2022-07-06T05:35:33;19.50;80.10
66708;DHT22;53622;0.000;0.000;2022-07-06T05:38:26;19.50;79.80
66708;DHT22;53622;0.000;0.000;2022-07-06T05:40:59;19.60;79.80
66708;DHT22;53622;0.000;0.000;2022-07-06T05:43:29;19.70;79.70
66708;DHT22;53622;0.000;0.000;2022-07-06T05:46:01;19.70;79.60
66708;DHT22;53622;0.000;0.000;2022-07-06T05:48:35;19.70;79.50
66708;DHT22;53622;0.000;0.000;2022-07-06T05:51:23;19.70;79.60
66708;DHT22;53622;0.000;0.000;2022-07-06T05:53:54;19.80;79.80
66708;DHT22;53622;0.000;0.000;2022-07-06T05:56:25;19.90;79.70
66708;DHT22;53622;0.000;0.000;2022-07-06T05:58:55;19.90;79.80
66708;DHT22;53622;0.000;0.000;2022-07-06T06:01:25;19.90;80.30
66708;DHT22;53622;0.000;0.000;2022-07-06T06:04:06;19.90;80.30
66708;DHT22;53622;0.000;0.000;2022-07-06T06:06:36;20.00;80.20
66708;DHT22;53622;0.000;0.000;2022-07-06T06:09:07;20.00;80.20
66708;DHT22;53622;0.000;0.000;2022-07-06T06:11:39;20.00;80.20
66708;DHT22;53622;0.000;0.000;2022-07-06T06:14:10;20.00;80.20
66708;DHT22;53622;0.000;0.000;2022-07-06T06:16:40;20.10;80.10
66708;DHT22;53622;0.000;0.000;2022-07-06T06:19:10;20.10;80.00
66708;DHT22;53622;0.000;0.000;2022-07-06T06:21:40;20.10;80.10
66708;DHT22;53622;0.000;0.000;2022-07-06T06:24:09;20.10;80.00
66708;DHT22;53622;0.000;0.000;2022-07-06T06:26:40;20.10;79.80
66708;DHT22;53622;0.000;0.000;2022-07-06T06:29:09;20.20;79.80
66708;DHT22;53622;0.000;0.000;2022-07-06T06:31:38;20.20;79.70
66708;DHT22;53622;0.000;0.000;2022-07-06T06:34:08;20.20;79.60
66708;DHT22;53622;0.000;0.000;2022-07-06T06:36:38;20.20;79.60
66708;DHT22;53622;0.000;0.000;2022-07-06T06:39:07;20.20;79.60
66708;DHT22;53622;0.000;0.000;2022-07-06T06:41:36;20.20;79.60
66708;DHT22;53622;0.000;0.000;2022-07-06T06:44:07;20.20;79.60
66708;DHT22;53622;0.000;0.000;2022-07-06T06:46:40;20.20;79.60
66708;DHT22;53622;0.000;0.000;2022-07-06T06:49:10;20.20;79.60
66708;DHT22;53622;0.000;0.000;2022-07-06T06:51:39;20.30;79.70
66708;DHT22;53622;0.000;0.000;2022-07-06T06:54:09;20.30;79.80
66708;DHT22;53622;0.000;0.000;2022-07-06T06:56:38;20.30;79.90
66708;DHT22;53622;0.000;0.000;2022-07-06T06:59:08;20.30;80.40
66708;DHT22;53622;0.000;0.000;2022-07-06T07:01:44;20.30;80.30
66708;DHT22;53622;0.000;0.000;2022-07-06T07:04:22;20.30;80.40
66708;DHT22;53622;0.000;0.000;2022-07-06T07:06:52;20.40;80.50
66708;DHT22;53622;0.000;0.000;2022-07-06T07:09:21;20.40;80.40
66708;DHT22;53622;0.000;0.000;2022-07-06T07:11:50;20.40;80.50
66708;DHT22;53622;0.000;0.000;2022-07-06T07:14:21;20.40;80.60
66708;DHT22;53622;0.000;0.000;2022-07-06T07:16:50;20.40;80.70
66708;DHT22;53622;0.000;0.000;2022-07-06T07:19:19;20.40;80.70
66708;DHT22;53622;0.000;0.000;2022-07-06T07:21:49;20.40;80.80
66708;DHT22;53622;0.000;0.000;2022-07-06T07:24:18;20.40;80.80
66708;DHT22;53622;0.000;0.000;2022-07-06T07:26:48;20.40;80.90
66708;DHT22;53622;0.000;0.000;2022-07-06T07:29:17;20.50;81.00
66708;DHT22;53622;0.000;0.000;2022-07-06T07:31:48;20.50;81.10
66708;DHT22;53622;0.000;0.000;2022-07-06T07:34:18;20.50;81.20
66708;DHT22;53622;0.000;0.000;2022-07-06T07:36:47;20.50;81.20
66708;DHT22;53622;0.000;0.000;2022-07-06T07:39:16;20.50;81.40
66708;DHT22;53622;0.000;0.000;2022-07-06T07:41:46;20.50;81.40
66708;DHT22;53622;0.000;0.000;2022-07-06T07:44:18;20.50;81.30
66708;DHT22;53622;0.000;0.000;2022-07-06T07:46:48;20.50;81.50
66708;DHT22;53622;0.000;0.000;2022-07-06T07:49:18;20.50;81.50
66708;DHT22;53622;0.000;0.000;2022-07-06T07:51:49;20.60;81.60
66708;DHT22;53622;0.000;0.000;2022-07-06T07:54:18;20.60;81.70
66708;DHT22;53622;0.000;0.000;2022-07-06T07:56:47;20.60;81.90
66708;DHT22;53622;0.000;0.000;2022-07-06T07:59:17;20.60;81.70
66708;DHT22;53622;0.000;0.000;2022-07-06T08:01:48;20.60;82.00
66708;DHT22;53622;0.000;0.000;2022-07-06T08:04:18;20.60;82.10
66708;DHT22;53622;0.000;0.000;2022-07-06T08:06:47;20.60;82.20
66708;DHT22;53622;0.000;0.000;2022-07-06T08:09:17;20.70;82.30
66708;DHT22;53622;0.000;0.000;2022-07-06T08:11:46;20.70;82.70
66708;DHT22;53622;0.000;0.000;2022-07-06T08:14:16;20.70;82.80
66708;DHT22;53622;0.000;0.000;2022-07-06T08:16:45;20.70;82.70
66708;DHT22;53622;0.000;0.000;2022-07-06T08:19:16;20.70;82.80
66708;DHT22;53622;0.000;0.000;2022-07-06T08:21:45;20.70;82.70
66708;DHT22;53622;0.000;0.000;2022-07-06T08:24:15;20.70;83.60
66708;DHT22;53622;0.000;0.000;2022-07-06T08:26:44;20.70;82.80
66708;DHT22;53622;0.000;0.000;2022-07-06T08:29:13;20.80;82.70
66708;DHT22;53622;0.000;0.000;2022-07-06T08:31:43;20.70;82.80
66708;DHT22;53622;0.000;0.000;2022-07-06T08:34:34;20.70;82.90
66708;DHT22;53622;0.000;0.000;2022-07-06T08:37:03;20.80;83.00
66708;DHT22;53622;0.000;0.000;2022-07-06T08:39:34;20.70;82.90
66708;DHT22;53622;0.000;0.000;2022-07-06T08:42:03;20.80;82.90
66708;DHT22;53622;0.000;0.000;2022-07-06T08:44:35;20.80;82.80
66708;DHT22;53622;0.000;0.000;2022-07-06T08:47:06;20.80;82.90
66708;DHT22;53622;0.000;0.000;2022-07-06T08:49:43;20.80;82.90
66708;DHT22;53622;0.000;0.000;2022-07-06T08:52:14;20.80;82.80
66708;DHT22;53622;0.000;0.000;2022-07-06T08:54:44;20.80;82.80
66708;DHT22;53622;0.000;0.000;2022-07-06T08:57:15;20.80;82.80
66708;DHT22;53622;0.000;0.000;2022-07-06T08:59:44;20.80;82.80
66708;DHT22;53622;0.000;0.000;2022-07-06T09:02:14;20.90;82.90
66708;DHT22;53622;0.000;0.000;2022-07-06T09:04:46;20.90;82.80
66708;DHT22;53622;0.000;0.000;2022-07-06T09:07:17;20.90;82.60
66708;DHT22;53622;0.000;0.000;2022-07-06T09:10:08;20.90;82.50
66708;DHT22;53622;0.000;0.000;2022-07-06T09:12:38;20.90;82.60
66708;DHT22;53622;0.000;0.000;2022-07-06T09:15:08;20.90;82.70
66708;DHT22;53622;0.000;0.000;2022-07-06T09:17:38;20.90;82.60
66708;DHT22;53622;0.000;0.000;2022-07-06T09:20:11;20.90;82.70
66708;DHT22;53622;0.000;0.000;2022-07-06T09:22:41;20.90;82.80
66708;DHT22;53622;0.000;0.000;2022-07-06T09:25:12;20.90;82.80
66708;DHT22;53622;0.000;0.000;2022-07-06T09:27:44;20.90;82.80
66708;DHT22;53622;0.000;0.000;2022-07-06T09:30:16;20.90;82.70
66708;DHT22;53622;0.000;0.000;2022-07-06T09:32:47;20.90;82.80
66708;DHT22;53622;0.000;0.000;2022-07-06T09:35:25;20.90;82.70
66708;DHT22;53622;0.000;0.000;2022-07-06T09:38:02;20.90;82.70
66708;DHT22;53622;0.000;0.000;2022-07-06T09:40:33;20.90;82.70
66708;DHT22;53622;0.000;0.000;2022-07-06T09:43:10;20.90;82.70
66708;DHT22;53622;0.000;0.000;2022-07-06T09:45:43;20.90;82.70
66708;DHT22;53622;0.000;0.000;2022-07-06T09:48:14;21.00;82.70
66708;DHT22;53622;0.000;0.000;2022-07-06T09:50:51;21.00;82.70
66708;DHT22;53622;0.000;0.000;2022-07-06T09:53:23;21.00;82.80
66708;DHT22;53622;0.000;0.000;2022-07-06T09:55:55;21.00;82.80
66708;DHT22;53622;0.000;0.000;2022-07-06T09:58:26;21.00;82.70
66708;DHT22;53622;0.000;0.000;2022-07-06T10:01:25;21.00;82.60
66708;DHT22;53622;0.000;0.000;2022-07-06T10:03:57;21.10;82.90
66708;DHT22;53622;0.000;0.000;2022-07-06T10:06:28;21.10;83.20
66708;DHT22;53622;0.000;0.000;2022-07-06T10:08:58;21.10;83.10
66708;DHT22;53622;0.000;0.000;2022-07-06T10:11:29;21.10;83.20
66708;DHT22;53622;0.000;0.000;2022-07-06T10:13:59;21.10;83.10
66708;DHT22;53622;0.000;0.000;2022-07-06T10:16:30;21.10;83.00
66708;DHT22;53622;0.000;0.000;2022-07-06T10:19:02;21.10;82.90
66708;DHT22;53622;0.000;0.000;2022-07-06T10:21:35;21.20;83.30
66708;DHT22;53622;0.000;0.000;2022-07-06T10:24:06;21.20;83.20
66708;DHT22;53622;0.000;0.000;2022-07-06T10:26:37;21.20;83.30
66708;DHT22;53622;0.000;0.000;2022-07-06T10:29:10;21.20;83.50
66708;DHT22;53622;0.000;0.000;2022-07-06T10:31:43;21.20;83.50
66708;DHT22;53622;0.000;0.000;2022-07-06T10:34:14;21.30;83.40
66708;DHT22;53622;0.000;0.000;2022-07-06T10:36:49;21.30;83.70
66708;DHT22;53622;0.000;0.000;2022-07-06T10:39:32;21.30;84.30
66708;DHT22;53622;0.000;0.000;2022-07-06T10:42:41;21.30;83.80
66708;DHT22;53622;0.000;0.000;2022-07-06T10:45:12;21.40;83.70
66708;DHT22;53622;0.000;0.000;2022-07-06T10:47:44;21.40;82.80
66708;DHT22;53622;0.000;0.000;2022-07-06T10:50:13;21.40;82.60
66708;DHT22;53622;0.000;0.000;2022-07-06T10:52:58;21.40;82.80
66708;DHT22;53622;0.000;0.000;2022-07-06T10:55:31;21.40;83.00
66708;DHT22;53622;0.000;0.000;2022-07-06T10:58:01;21.40;83.20
66708;DHT22;53622;0.000;0.000;2022-07-06T11:00:58;21.40;83.30
66708;DHT22;53622;0.000;0.000;2022-07-06T11:03:46;21.30;83.70
66708;DHT22;53622;0.000;0.000;2022-07-06T11:06:17;21.40;83.40
66708;DHT22;53622;0.000;0.000;2022-07-06T11:08:50;21.30;83.30
66708;DHT22;53622;0.000;0.000;2022-07-06T11:11:23;21.40;83.60
66708;DHT22;53622;0.000;0.000;2022-07-06T11:13:58;21.40;83.90
66708;DHT22;53622;0.000;0.000;2022-07-06T11:16:30;21.40;83.70
66708;DHT22;53622;0.000;0.000;2022-07-06T11:19:07;21.40;83.10
66708;DHT22;53622;0.000;0.000;2022-07-06T11:21:44;21.50;83.20
66708;DHT22;53622;0.000;0.000;2022-07-06T11:24:16;21.50;83.60
66708;DHT22;53622;0.000;0.000;2022-07-06T11:26:47;21.50;83.60
66708;DHT22;53622;0.000;0.000;2022-07-06T11:29:20;21.60;83.60
66708;DHT22;53622;0.000;0.000;2022-07-06T11:31:52;21.50;83.40
66708;DHT22;53622;0.000;0.000;2022-07-06T11:34:23;21.60;83.60
66708;DHT22;53622;0.000;0.000;2022-07-06T11:36:57;21.60;83.70
66708;DHT22;53622;0.000;0.000;2022-07-06T11:39:29;21.60;83.70
66708;DHT22;53622;0.000;0.000;2022-07-06T11:42:00;21.60;84.40
66708;DHT22;53622;0.000;0.000;2022-07-06T11:44:32;21.60;83.70
66708;DHT22;53622;0.000;0.000;2022-07-06T11:47:02;21.50;83.60
66708;DHT22;53622;0.000;0.000;2022-07-06T11:49:33;21.50;83.60
66708;DHT22;53622;0.000;0.000;2022-07-06T11:52:06;21.50;83.70
66708;DHT22;53622;0.000;0.000;2022-07-06T11:54:37;21.50;83.60
66708;DHT22;53622;0.000;0.000;2022-07-06T11:57:08;21.50;83.50
66708;DHT22;53622;0.000;0.000;2022-07-06T11:59:39;21.50;84.60
66708;DHT22;53622;0.000;0.000;2022-07-06T12:02:10;21.60;84.00
66708;DHT22;53622;0.000;0.000;2022-07-06T12:04:42;21.60;84.10
66708;DHT22;53622;0.000;0.000;2022-07-06T12:07:13;21.60;84.20
66708;DHT22;53622;0.000;0.000;2022-07-06T12:09:46;21.60;84.10
66708;DHT22;53622;0.000;0.000;2022-07-06T12:12:16;21.60;84.30
66708;DHT22;53622;0.000;0.000;2022-07-06T12:14:45;21.60;84.40
66708;DHT22;53622;0.000;0.000;2022-07-06T12:17:15;21.60;84.40
66708;DHT22;53622;0.000;0.000;2022-07-06T12:19:45;21.60;84.30
66708;DHT22;53622;0.000;0.000;2022-07-06T12:22:25;21.60;84.10
66708;DHT22;53622;0.000;0.000;2022-07-06T12:24:55;21.60;84.10
66708;DHT22;53622;0.000;0.000;2022-07-06T12:27:34;21.60;84.20
66708;DHT22;53622;0.000;0.000;2022-07-06T12:30:11;21.60;84.20
66708;DHT22;53622;0.000;0.000;2022-07-06T12:32:47;21.60;84.30
66708;DHT22;53622;0.000;0.000;2022-07-06T12:36:08;21.70;84.40
66708;DHT22;53622;0.000;0.000;2022-07-06T12:38:44;21.70;84.60
66708;DHT22;53622;0.000;0.000;2022-07-06T12:41:29;21.70;84.60
66708;DHT22;53622;0.000;0.000;2022-07-06T12:44:05;21.60;84.40
66708;DHT22;53622;0.000;0.000;2022-07-06T12:46:36;21.70;84.30
66708;DHT22;53622;0.000;0.000;2022-07-06T12:49:15;21.60;83.80
66708;DHT22;53622;0.000;0.000;2022-07-06T12:51:59;21.60;83.70
66708;DHT22;53622;0.000;0.000;2022-07-06T12:54:30;21.60;83.60
66708;DHT22;53622;0.000;0.000;2022-07-06T12:57:10;21.60;83.60
66708;DHT22;53622;0.000;0.000;2022-07-06T12:59:44;21.60;83.80
66708;DHT22;53622;0.000;0.000;2022-07-06T13:02:22;21.60;83.70
66708;DHT22;53622;0.000;0.000;2022-07-06T13:05:14;21.60;83.80
66708;DHT22;53622;0.000;0.000;2022-07-06T13:07:45;21.70;83.90
66708;DHT22;53622;0.000;0.000;2022-07-06T13:10:16;21.70;83.90
66708;DHT22;53622;0.000;0.000;2022-07-06T13:12:47;21.70;83.90
66708;DHT22;53622;0.000;0.000;2022-07-06T13:15:16;21.70;84.00
66708;DHT22;53622;0.000;0.000;2022-07-06T13:17:45;21.70;84.00
66708;DHT22;53622;0.000;0.000;2022-07-06T13:20:15;21.70;84.10
66708;DHT22;53622;0.000;0.000;2022-07-06T13:22:45;21.70;84.00
66708;DHT22;53622;0.000;0.000;2022-07-06T13:25:15;21.70;84.00
66708;DHT22;53622;0.000;0.000;2022-07-06T13:27:46;21.70;84.10
66708;DHT22;53622;0.000;0.000;2022-07-06T13:30:15;21.70;84.10
66708;DHT22;53622;0.000;0.000;2022-07-06T13:32:45;21.70;84.00
66708;DHT22;53622;0.000;0.000;2022-07-06T13:35:14;21.70;84.10
66708;DHT22;53622;0.000;0.000;2022-07-06T13:37:45;21.70;84.00
66708;DHT22;53622;0.000;0.000;2022-07-06T13:40:17;21.60;84.00
66708;DHT22;53622;0.000;0.000;2022-07-06T13:42:47;21.70;84.00
66708;DHT22;53622;0.000;0.000;2022-07-06T13:45:17;21.70;84.10
66708;DHT22;53622;0.000;0.000;2022-07-06T13:47:46;21.70;84.00
66708;DHT22;53622;0.000;0.000;2022-07-06T13:50:16;21.70;83.90
66708;DHT22;53622;0.000;0.000;2022-07-06T13:52:46;21.70;84.00
66708;DHT22;53622;0.000;0.000;2022-07-06T13:55:15;21.70;84.00
66708;DHT22;53622;0.000;0.000;2022-07-06T13:57:44;21.70;83.90
66708;DHT22;53622;0.000;0.000;2022-07-06T14:00:17;21.70;84.00
66708;DHT22;53622;0.000;0.000;2022-07-06T14:02:47;21.70;83.90
66708;DHT22;53622;0.000;0.000;2022-07-06T14:05:16;21.70;84.00
66708;DHT22;53622;0.000;0.000;2022-07-06T14:07:46;21.70;84.00
66708;DHT22;53622;0.000;0.000;2022-07-06T14:10:16;21.70;84.00
66708;DHT22;53622;0.000;0.000;2022-07-06T14:12:45;21.70;83.90
66708;DHT22;53622;0.000;0.000;2022-07-06T14:15:14;21.70;83.90
66708;DHT22;53622;0.000;0.000;2022-07-06T14:17:45;21.70;83.90
66708;DHT22;53622;0.000;0.000;2022-07-06T14:20:15;21.70;83.90
66708;DHT22;53622;0.000;0.000;2022-07-06T14:22:46;21.70;83.70
66708;DHT22;53622;0.000;0.000;2022-07-06T14:25:15;21.70;83.70
66708;DHT22;53622;0.000;0.000;2022-07-06T14:27:45;21.70;83.90
66708;DHT22;53622;0.000;0.000;2022-07-06T14:30:15;21.70;84.00
66708;DHT22;53622;0.000;0.000;2022-07-06T14:32:46;21.80;84.20
66708;DHT22;53622;0.000;0.000;2022-07-06T14:35:15;21.80;84.20
66708;DHT22;53622;0.000;0.000;2022-07-06T14:37:45;21.80;84.20
66708;DHT22;53622;0.000;0.000;2022-07-06T14:40:16;21.80;84.30
66708;DHT22;53622;0.000;0.000;2022-07-06T14:42:45;21.80;84.20
66708;DHT22;53622;0.000;0.000;2022-07-06T14:45:14;21.80;84.10
66708;DHT22;53622;0.000;0.000;2022-07-06T14:47:44;21.80;84.20
66708;DHT22;53622;0.000;0.000;2022-07-06T14:50:15;21.80;84.70
66708;DHT22;53622;0.000;0.000;2022-07-06T14:52:44;21.80;83.90
66708;DHT22;53622;0.000;0.000;2022-07-06T14:55:14;21.80;83.80
66708;DHT22;53622;0.000;0.000;2022-07-06T14:57:43;21.80;83.80
66708;DHT22;53622;0.000;0.000;2022-07-06T15:00:14;21.80;83.70
66708;DHT22;53622;0.000;0.000;2022-07-06T15:02:43;21.80;83.70
66708;DHT22;53622;0.000;0.000;2022-07-06T15:05:14;21.80;84.40
66708;DHT22;53622;0.000;0.000;2022-07-06T15:07:44;21.80;83.60
66708;DHT22;53622;0.000;0.000;2022-07-06T15:10:21;21.80;83.60
66708;DHT22;53622;0.000;0.000;2022-07-06T15:12:50;21.80;83.60
66708;DHT22;53622;0.000;0.000;2022-07-06T15:15:20;21.80;83.60
66708;DHT22;53622;0.000;0.000;2022-07-06T15:18:09;21.80;83.50
66708;DHT22;53622;0.000;0.000;2022-07-06T15:20:40;21.80;83.40
66708;DHT22;53622;0.000;0.000;2022-07-06T15:23:09;21.80;83.50
66708;DHT22;53622;0.000;0.000;2022-07-06T15:25:40;21.80;83.50
66708;DHT22;53622;0.000;0.000;2022-07-06T15:28:09;21.80;83.40
66708;DHT22;53622;0.000;0.000;2022-07-06T15:30:40;21.80;83.40
66708;DHT22;53622;0.000;0.000;2022-07-06T15:33:09;21.80;83.40
66708;DHT22;53622;0.000;0.000;2022-07-06T15:35:40;21.80;83.40
66708;DHT22;53622;0.000;0.000;2022-07-06T15:38:11;21.80;83.60
66708;DHT22;53622;0.000;0.000;2022-07-06T15:40:40;21.80;83.90
66708;DHT22;53622;0.000;0.000;2022-07-06T15:43:12;21.80;83.80
66708;DHT22;53622;0.000;0.000;2022-07-06T15:45:41;21.80;83.60
66708;DHT22;53622;0.000;0.000;2022-07-06T15:48:11;21.80;83.50
66708;DHT22;53622;0.000;0.000;2022-07-06T15:50:42;21.80;83.50
66708;DHT22;53622;0.000;0.000;2022-07-06T15:53:11;21.80;83.50
66708;DHT22;53622;0.000;0.000;2022-07-06T15:55:40;21.80;83.40
66708;DHT22;53622;0.000;0.000;2022-07-06T15:58:10;21.80;83.50
66708;DHT22;53622;0.000;0.000;2022-07-06T16:00:39;21.90;83.60
66708;DHT22;53622;0.000;0.000;2022-07-06T16:03:09;21.90;83.70
66708;DHT22;53622;0.000;0.000;2022-07-06T16:05:38;21.90;83.60
66708;DHT22;53622;0.000;0.000;2022-07-06T16:08:29;21.90;83.00
66708;DHT22;53622;0.000;0.000;2022-07-06T16:11:11;21.90;82.80
66708;DHT22;53622;0.000;0.000;2022-07-06T16:13:40;21.90;82.90